sensor_id;sensor_type;location;lat;lon;timestamp;temperature;humidity
8862;DHT22;4799;50.996;4.754;2023-05-20T00:00:37;12.70;99.90
8862;DHT22;4799;50.996;4.754;2023-05-20T00:03:03;12.60;99.90
8862;DHT22;4799;50.996;4.754;2023-05-20T00:05:29;12.60;99.90
8862;DHT22;4799;50.996;4.754;2023-05-20T00:07:54;12.60;99.90
8862;DHT22;4799;50.996;4.754;2023-05-20T00:10:20;12.70;99.90
8862;DHT22;4799;50.996;4.754;2023-05-20T00:12:46;12.70;99.90
8862;DHT22;4799;50.996;4.754;2023-05-20T00:15:11;12.70;99.90
8862;DHT22;4799;50.996;4.754;2023-05-20T00:17:37;12.80;99.90
8862;DHT22;4799;50.996;4.754;2023-05-20T00:20:03;12.70;99.90
8862;DHT22;4799;50.996;4.754;2023-05-20T00:22:30;12.80;99.90
8862;DHT22;4799;50.996;4.754;2023-05-20T00:24:56;12.80;99.90
8862;DHT22;4799;50.996;4.754;2023-05-20T00:27:21;12.80;99.70
8862;DHT22;4799;50.996;4.754;2023-05-20T00:29:47;12.80;99.50
8862;DHT22;4799;50.996;4.754;2023-05-20T00:32:13;12.80;99.40
8862;DHT22;4799;50.996;4.754;2023-05-20T00:34:39;12.80;99.30
8862;DHT22;4799;50.996;4.754;2023-05-20T00:37:05;12.80;99.30
8862;DHT22;4799;50.996;4.754;2023-05-20T00:39:30;12.80;99.30
8862;DHT22;4799;50.996;4.754;2023-05-20T00:41:56;12.80;99.30
8862;DHT22;4799;50.996;4.754;2023-05-20T00:44:25;12.80;99.40
8862;DHT22;4799;50.996;4.754;2023-05-20T00:46:52;12.70;99.40
8862;DHT22;4799;50.996;4.754;2023-05-20T00:49:18;12.70;99.50
8862;DHT22;4799;50.996;4.754;2023-05-20T00:51:44;12.70;99.70
8862;DHT22;4799;50.996;4.754;2023-05-20T00:54:10;12.60;99.70
8862;DHT22;4799;50.996;4.754;2023-05-20T00:56:36;12.70;99.70
8862;DHT22;4799;50.996;4.754;2023-05-20T00:59:03;12.60;99.70
8862;DHT22;4799;50.996;4.754;2023-05-20T01:01:29;12.60;99.70
8862;DHT22;4799;50.996;4.754;2023-05-20T01:03:54;12.60;99.90
8862;DHT22;4799;50.996;4.754;2023-05-20T01:06:20;12.60;99.90
8862;DHT22;4799;50.996;4.754;2023-05-20T01:08:46;12.50;99.90
8862;DHT22;4799;50.996;4.754;2023-05-20T01:11:37;12.50;99.90
8862;DHT22;4799;50.996;4.754;2023-05-20T01:14:07;12.50;99.90
8862;DHT22;4799;50.996;4.754;2023-05-20T01:16:34;12.40;99.90
8862;DHT22;4799;50.996;4.754;2023-05-20T01:19:01;12.40;99.90
8862;DHT22;4799;50.996;4.754;2023-05-20T01:21:29;12.40;99.90
8862;DHT22;4799;50.996;4.754;2023-05-20T01:23:56;12.30;99.90
8862;DHT22;4799;50.996;4.754;2023-05-20T01:26:22;12.20;99.90
8862;DHT22;4799;50.996;4.754;2023-05-20T01:28:51;12.20;99.90
8862;DHT22;4799;50.996;4.754;2023-05-20T01:31:23;12.10;99.90
8862;DHT22;4799;50.996;4.754;2023-05-20T01:33:54;12.00;99.90
8862;DHT22;4799;50.996;4.754;2023-05-20T01:36:21;12.00;99.90
8862;DHT22;4799;50.996;4.754;2023-05-20T01:38:48;11.90;99.90
8862;DHT22;4799;50.996;4.754;2023-05-20T01:41:18;11.90;99.90
8862;DHT22;4799;50.996;4.754;2023-05-20T01:43:45;11.80;99.90
8862;DHT22;4799;50.996;4.754;2023-05-20T01:46:11;11.80;99.90
8862;DHT22;4799;50.996;4.754;2023-05-20T01:48:37;11.80;99.90
8862;DHT22;4799;50.996;4.754;2023-05-20T01:51:02;11.70;99.90
8862;DHT22;4799;50.996;4.754;2023-05-20T01:53:28;11.70;99.90
8862;DHT22;4799;50.996;4.754;2023-05-20T01:55:54;11.70;99.90
8862;DHT22;4799;50.996;4.754;2023-05-20T01:58:20;11.60;99.90
8862;DHT22;4799;50.996;4.754;2023-05-20T02:00:45;11.60;99.90
8862;DHT22;4799;50.996;4.754;2023-05-20T02:03:11;11.60;99.90
8862;DHT22;4799;50.996;4.754;2023-05-20T02:05:37;11.60;99.90
8862;DHT22;4799;50.996;4.754;2023-05-20T02:08:03;11.50;99.90
8862;DHT22;4799;50.996;4.754;2023-05-20T02:10:28;11.50;99.90
8862;DHT22;4799;50.996;4.754;2023-05-20T02:12:54;11.50;99.90
8862;DHT22;4799;50.996;4.754;2023-05-20T02:15:20;11.40;99.90
8862;DHT22;4799;50.996;4.754;2023-05-20T02:17:46;11.40;99.90
8862;DHT22;4799;50.996;4.754;2023-05-20T02:20:12;11.40;99.90
8862;DHT22;4799;50.996;4.754;2023-05-20T02:22:38;11.40;99.90
8862;DHT22;4799;50.996;4.754;2023-05-20T02:25:04;11.40;99.90
8862;DHT22;4799;50.996;4.754;2023-05-20T02:27:30;11.40;99.90
8862;DHT22;4799;50.996;4.754;2023-05-20T02:29:56;11.30;99.90
8862;DHT22;4799;50.996;4.754;2023-05-20T02:32:22;11.40;99.90
8862;DHT22;4799;50.996;4.754;2023-05-20T02:34:53;11.30;99.90
8862;DHT22;4799;50.996;4.754;2023-05-20T02:37:19;11.30;99.90
8862;DHT22;4799;50.996;4.754;2023-05-20T02:39:44;11.30;99.90
8862;DHT22;4799;50.996;4.754;2023-05-20T02:42:11;11.20;99.90
8862;DHT22;4799;50.996;4.754;2023-05-20T02:44:36;11.10;99.90
8862;DHT22;4799;50.996;4.754;2023-05-20T02:47:02;11.10;99.90
8862;DHT22;4799;50.996;4.754;2023-05-20T02:49:28;11.00;99.90
8862;DHT22;4799;50.996;4.754;2023-05-20T02:51:54;11.00;99.90
8862;DHT22;4799;50.996;4.754;2023-05-20T02:54:20;11.00;99.90
8862;DHT22;4799;50.996;4.754;2023-05-20T02:56:45;11.00;99.90
8862;DHT22;4799;50.996;4.754;2023-05-20T02:59:11;11.00;99.90
8862;DHT22;4799;50.996;4.754;2023-05-20T03:01:37;11.00;99.90
8862;DHT22;4799;50.996;4.754;2023-05-20T03:04:04;10.90;99.90
8862;DHT22;4799;50.996;4.754;2023-05-20T03:06:30;10.90;99.90
8862;DHT22;4799;50.996;4.754;2023-05-20T03:08:56;10.90;99.90
8862;DHT22;4799;50.996;4.754;2023-05-20T03:11:23;10.90;99.90
8862;DHT22;4799;50.996;4.754;2023-05-20T03:13:48;10.90;99.90
8862;DHT22;4799;50.996;4.754;2023-05-20T03:16:14;10.90;99.90
8862;DHT22;4799;50.996;4.754;2023-05-20T03:18:41;10.90;99.90
8862;DHT22;4799;50.996;4.754;2023-05-20T03:21:07;10.80;99.90
8862;DHT22;4799;50.996;4.754;2023-05-20T03:23:33;10.80;99.90
8862;DHT22;4799;50.996;4.754;2023-05-20T03:25:59;10.70;99.90
8862;DHT22;4799;50.996;4.754;2023-05-20T03:28:26;10.70;99.90
8862;DHT22;4799;50.996;4.754;2023-05-20T03:30:51;10.70;99.90
8862;DHT22;4799;50.996;4.754;2023-05-20T03:33:17;10.70;99.90
8862;DHT22;4799;50.996;4.754;2023-05-20T03:35:43;10.70;99.90
8862;DHT22;4799;50.996;4.754;2023-05-20T03:38:09;10.70;99.90
8862;DHT22;4799;50.996;4.754;2023-05-20T03:40:34;10.60;99.90
8862;DHT22;4799;50.996;4.754;2023-05-20T03:43:00;10.70;99.90
8862;DHT22;4799;50.996;4.754;2023-05-20T03:45:26;10.60;99.90
8862;DHT22;4799;50.996;4.754;2023-05-20T03:47:52;10.60;99.90
8862;DHT22;4799;50.996;4.754;2023-05-20T03:50:17;10.60;99.90
8862;DHT22;4799;50.996;4.754;2023-05-20T03:52:43;10.60;99.90
8862;DHT22;4799;50.996;4.754;2023-05-20T03:55:09;10.60;99.90
8862;DHT22;4799;50.996;4.754;2023-05-20T03:57:35;10.60;99.90
8862;DHT22;4799;50.996;4.754;2023-05-20T04:00:01;10.60;99.90
8862;DHT22;4799;50.996;4.754;2023-05-20T04:02:30;10.60;99.90
8862;DHT22;4799;50.996;4.754;2023-05-20T04:04:55;10.60;99.90
8862;DHT22;4799;50.996;4.754;2023-05-20T04:07:22;10.60;99.90
8862;DHT22;4799;50.996;4.754;2023-05-20T04:09:48;10.60;99.90
8862;DHT22;4799;50.996;4.754;2023-05-20T04:12:13;10.60;99.90
8862;DHT22;4799;50.996;4.754;2023-05-20T04:14:39;10.70;99.90
8862;DHT22;4799;50.996;4.754;2023-05-20T04:17:06;10.80;99.90
8862;DHT22;4799;50.996;4.754;2023-05-20T04:19:32;10.90;99.90
8862;DHT22;4799;50.996;4.754;2023-05-20T04:21:59;11.00;99.90
8862;DHT22;4799;50.996;4.754;2023-05-20T04:24:26;11.00;99.90
8862;DHT22;4799;50.996;4.754;2023-05-20T04:26:52;11.10;99.90
8862;DHT22;4799;50.996;4.754;2023-05-20T04:29:18;11.20;99.90
8862;DHT22;4799;50.996;4.754;2023-05-20T04:31:47;11.30;99.90
8862;DHT22;4799;50.996;4.754;2023-05-20T04:34:13;11.50;99.90
8862;DHT22;4799;50.996;4.754;2023-05-20T04:36:43;11.60;99.90
8862;DHT22;4799;50.996;4.754;2023-05-20T04:39:10;11.70;99.90
8862;DHT22;4799;50.996;4.754;2023-05-20T04:41:35;11.80;99.90
8862;DHT22;4799;50.996;4.754;2023-05-20T04:44:01;11.90;99.90
8862;DHT22;4799;50.996;4.754;2023-05-20T04:46:28;11.90;99.90
8862;DHT22;4799;50.996;4.754;2023-05-20T04:48:54;12.00;99.90
8862;DHT22;4799;50.996;4.754;2023-05-20T04:51:20;12.10;99.90
8862;DHT22;4799;50.996;4.754;2023-05-20T04:53:46;12.10;99.90
8862;DHT22;4799;50.996;4.754;2023-05-20T04:56:13;12.10;99.90
8862;DHT22;4799;50.996;4.754;2023-05-20T04:58:39;12.10;99.90
8862;DHT22;4799;50.996;4.754;2023-05-20T05:01:05;12.10;99.90
8862;DHT22;4799;50.996;4.754;2023-05-20T05:03:31;12.10;99.90
8862;DHT22;4799;50.996;4.754;2023-05-20T05:05:58;12.10;99.90
8862;DHT22;4799;50.996;4.754;2023-05-20T05:08:24;12.10;99.90
8862;DHT22;4799;50.996;4.754;2023-05-20T05:10:51;12.10;99.90
8862;DHT22;4799;50.996;4.754;2023-05-20T05:13:17;12.10;99.90
8862;DHT22;4799;50.996;4.754;2023-05-20T05:15:42;12.20;99.90
8862;DHT22;4799;50.996;4.754;2023-05-20T05:18:08;12.20;99.90
8862;DHT22;4799;50.996;4.754;2023-05-20T05:20:34;12.30;99.90
8862;DHT22;4799;50.996;4.754;2023-05-20T05:23:00;12.30;99.90
8862;DHT22;4799;50.996;4.754;2023-05-20T05:25:25;12.30;99.90
8862;DHT22;4799;50.996;4.754;2023-05-20T05:27:51;12.30;99.90
8862;DHT22;4799;50.996;4.754;2023-05-20T05:30:17;12.30;99.90
8862;DHT22;4799;50.996;4.754;2023-05-20T05:32:43;12.40;99.90
8862;DHT22;4799;50.996;4.754;2023-05-20T05:35:09;12.40;99.90
8862;DHT22;4799;50.996;4.754;2023-05-20T05:37:35;12.50;99.90
8862;DHT22;4799;50.996;4.754;2023-05-20T05:40:01;12.50;99.90
8862;DHT22;4799;50.996;4.754;2023-05-20T05:42:27;12.60;99.90
8862;DHT22;4799;50.996;4.754;2023-05-20T05:44:53;12.60;99.90
8862;DHT22;4799;50.996;4.754;2023-05-20T05:47:20;12.70;99.90
8862;DHT22;4799;50.996;4.754;2023-05-20T05:49:45;12.70;99.90
8862;DHT22;4799;50.996;4.754;2023-05-20T05:52:12;12.80;99.90
8862;DHT22;4799;50.996;4.754;2023-05-20T05:54:37;12.80;99.90
8862;DHT22;4799;50.996;4.754;2023-05-20T05:57:03;12.90;99.90
8862;DHT22;4799;50.996;4.754;2023-05-20T05:59:29;12.90;99.90
8862;DHT22;4799;50.996;4.754;2023-05-20T06:01:55;13.00;99.90
8862;DHT22;4799;50.996;4.754;2023-05-20T06:04:20;13.10;99.90
8862;DHT22;4799;50.996;4.754;2023-05-20T06:06:47;13.10;99.90
8862;DHT22;4799;50.996;4.754;2023-05-20T06:09:12;13.20;99.90
8862;DHT22;4799;50.996;4.754;2023-05-20T06:11:38;13.20;99.90
8862;DHT22;4799;50.996;4.754;2023-05-20T06:14:06;13.30;99.90
8862;DHT22;4799;50.996;4.754;2023-05-20T06:16:32;13.40;99.90
8862;DHT22;4799;50.996;4.754;2023-05-20T06:18:58;13.40;99.90
8862;DHT22;4799;50.996;4.754;2023-05-20T06:21:23;13.50;99.90
8862;DHT22;4799;50.996;4.754;2023-05-20T06:23:49;13.60;99.90
8862;DHT22;4799;50.996;4.754;2023-05-20T06:26:15;13.60;99.90
8862;DHT22;4799;50.996;4.754;2023-05-20T06:28:41;13.70;99.90
8862;DHT22;4799;50.996;4.754;2023-05-20T06:31:06;13.80;99.90
8862;DHT22;4799;50.996;4.754;2023-05-20T06:33:33;13.80;99.90
8862;DHT22;4799;50.996;4.754;2023-05-20T06:35:59;13.90;99.90
8862;DHT22;4799;50.996;4.754;2023-05-20T06:38:28;13.90;99.90
8862;DHT22;4799;50.996;4.754;2023-05-20T06:40:54;14.00;99.90
8862;DHT22;4799;50.996;4.754;2023-05-20T06:43:19;14.10;99.90
8862;DHT22;4799;50.996;4.754;2023-05-20T06:45:45;14.10;99.90
8862;DHT22;4799;50.996;4.754;2023-05-20T06:48:11;14.20;99.90
8862;DHT22;4799;50.996;4.754;2023-05-20T06:50:37;14.30;99.90
8862;DHT22;4799;50.996;4.754;2023-05-20T06:53:02;14.30;99.90
8862;DHT22;4799;50.996;4.754;2023-05-20T06:55:29;14.40;99.90
8862;DHT22;4799;50.996;4.754;2023-05-20T06:57:54;14.50;99.90
8862;DHT22;4799;50.996;4.754;2023-05-20T07:00:20;14.60;99.90
8862;DHT22;4799;50.996;4.754;2023-05-20T07:02:46;14.60;99.90
8862;DHT22;4799;50.996;4.754;2023-05-20T07:05:12;14.70;99.90
8862;DHT22;4799;50.996;4.754;2023-05-20T07:07:38;14.80;99.90
8862;DHT22;4799;50.996;4.754;2023-05-20T07:10:04;14.90;99.90
8862;DHT22;4799;50.996;4.754;2023-05-20T07:12:31;15.00;99.90
8862;DHT22;4799;50.996;4.754;2023-05-20T07:14:57;15.00;99.90
8862;DHT22;4799;50.996;4.754;2023-05-20T07:17:23;15.10;99.90
8862;DHT22;4799;50.996;4.754;2023-05-20T07:19:49;15.20;99.90
8862;DHT22;4799;50.996;4.754;2023-05-20T07:22:15;15.30;99.90
8862;DHT22;4799;50.996;4.754;2023-05-20T07:24:41;15.40;99.90
8862;DHT22;4799;50.996;4.754;2023-05-20T07:27:07;15.50;99.90
8862;DHT22;4799;50.996;4.754;2023-05-20T07:29:34;15.50;99.90
8862;DHT22;4799;50.996;4.754;2023-05-20T07:32:00;15.60;99.90
8862;DHT22;4799;50.996;4.754;2023-05-20T07:34:26;15.70;99.90
8862;DHT22;4799;50.996;4.754;2023-05-20T07:36:52;15.70;99.90
8862;DHT22;4799;50.996;4.754;2023-05-20T07:39:18;15.90;99.90
8862;DHT22;4799;50.996;4.754;2023-05-20T07:41:44;15.90;99.90
8862;DHT22;4799;50.996;4.754;2023-05-20T07:44:09;16.00;99.90
8862;DHT22;4799;50.996;4.754;2023-05-20T07:46:36;16.10;99.90
8862;DHT22;4799;50.996;4.754;2023-05-20T07:49:03;16.20;99.90
8862;DHT22;4799;50.996;4.754;2023-05-20T07:51:29;16.20;99.90
8862;DHT22;4799;50.996;4.754;2023-05-20T07:53:56;16.30;99.40
8862;DHT22;4799;50.996;4.754;2023-05-20T07:56:22;16.30;98.90
8862;DHT22;4799;50.996;4.754;2023-05-20T07:58:52;16.40;99.30
8862;DHT22;4799;50.996;4.754;2023-05-20T08:01:19;16.40;99.20
8862;DHT22;4799;50.996;4.754;2023-05-20T08:03:44;16.50;97.60
8862;DHT22;4799;50.996;4.754;2023-05-20T08:06:10;16.50;97.10
8862;DHT22;4799;50.996;4.754;2023-05-20T08:08:36;16.50;97.00
8862;DHT22;4799;50.996;4.754;2023-05-20T08:11:02;16.70;96.80
8862;DHT22;4799;50.996;4.754;2023-05-20T08:13:28;16.70;96.50
8862;DHT22;4799;50.996;4.754;2023-05-20T08:15:54;16.70;95.80
8862;DHT22;4799;50.996;4.754;2023-05-20T08:18:21;16.70;94.70
8862;DHT22;4799;50.996;4.754;2023-05-20T08:20:47;16.80;94.90
8862;DHT22;4799;50.996;4.754;2023-05-20T08:23:12;16.80;93.80
8862;DHT22;4799;50.996;4.754;2023-05-20T08:25:38;16.90;93.60
8862;DHT22;4799;50.996;4.754;2023-05-20T08:28:04;16.90;93.60
8862;DHT22;4799;50.996;4.754;2023-05-20T08:30:34;17.00;93.70
8862;DHT22;4799;50.996;4.754;2023-05-20T08:33:00;17.10;93.90
8862;DHT22;4799;50.996;4.754;2023-05-20T08:35:26;17.20;94.20
8862;DHT22;4799;50.996;4.754;2023-05-20T08:37:52;17.20;92.90
8862;DHT22;4799;50.996;4.754;2023-05-20T08:40:19;17.30;92.10
8862;DHT22;4799;50.996;4.754;2023-05-20T08:42:47;17.20;91.60
8862;DHT22;4799;50.996;4.754;2023-05-20T08:45:16;17.30;91.20
8862;DHT22;4799;50.996;4.754;2023-05-20T08:47:43;17.30;90.70
8862;DHT22;4799;50.996;4.754;2023-05-20T08:50:10;17.40;91.40
8862;DHT22;4799;50.996;4.754;2023-05-20T08:52:44;17.40;90.00
8862;DHT22;4799;50.996;4.754;2023-05-20T08:55:14;17.50;90.20
8862;DHT22;4799;50.996;4.754;2023-05-20T08:57:41;17.60;90.30
8862;DHT22;4799;50.996;4.754;2023-05-20T09:00:11;17.60;89.20
8862;DHT22;4799;50.996;4.754;2023-05-20T09:02:41;17.70;88.10
8862;DHT22;4799;50.996;4.754;2023-05-20T09:05:08;17.80;89.80
8862;DHT22;4799;50.996;4.754;2023-05-20T09:07:35;17.90;84.70
8862;DHT22;4799;50.996;4.754;2023-05-20T09:10:02;18.00;84.90
8862;DHT22;4799;50.996;4.754;2023-05-20T09:12:28;18.10;85.20
8862;DHT22;4799;50.996;4.754;2023-05-20T09:14:53;18.10;85.00
8862;DHT22;4799;50.996;4.754;2023-05-20T09:17:21;18.20;85.10
8862;DHT22;4799;50.996;4.754;2023-05-20T09:19:52;18.30;82.50
8862;DHT22;4799;50.996;4.754;2023-05-20T09:22:24;18.20;81.30
8862;DHT22;4799;50.996;4.754;2023-05-20T09:24:51;18.30;77.80
8862;DHT22;4799;50.996;4.754;2023-05-20T09:27:17;18.30;76.40
8862;DHT22;4799;50.996;4.754;2023-05-20T09:29:43;18.30;75.90
8862;DHT22;4799;50.996;4.754;2023-05-20T09:32:09;18.30;77.40
8862;DHT22;4799;50.996;4.754;2023-05-20T09:34:36;18.40;77.60
8862;DHT22;4799;50.996;4.754;2023-05-20T09:37:02;18.50;78.00
8862;DHT22;4799;50.996;4.754;2023-05-20T09:39:35;18.50;75.20
8862;DHT22;4799;50.996;4.754;2023-05-20T09:42:14;18.60;78.40
8862;DHT22;4799;50.996;4.754;2023-05-20T09:44:41;18.80;79.10
8862;DHT22;4799;50.996;4.754;2023-05-20T09:47:07;18.80;74.60
8862;DHT22;4799;50.996;4.754;2023-05-20T09:49:34;18.80;73.00
8862;DHT22;4799;50.996;4.754;2023-05-20T09:52:03;18.90;73.00
8862;DHT22;4799;50.996;4.754;2023-05-20T09:54:29;18.90;74.50
8862;DHT22;4799;50.996;4.754;2023-05-20T09:56:57;19.10;72.90
8862;DHT22;4799;50.996;4.754;2023-05-20T09:59:25;19.00;72.20
8862;DHT22;4799;50.996;4.754;2023-05-20T10:01:51;19.10;71.80
8862;DHT22;4799;50.996;4.754;2023-05-20T10:04:18;19.10;72.50
8862;DHT22;4799;50.996;4.754;2023-05-20T10:12:33;19.20;68.90
8862;DHT22;4799;50.996;4.754;2023-05-20T10:15:14;19.30;69.40
8862;DHT22;4799;50.996;4.754;2023-05-20T10:18:11;19.30;71.10
8862;DHT22;4799;50.996;4.754;2023-05-20T10:20:48;19.40;70.90
8862;DHT22;4799;50.996;4.754;2023-05-20T10:23:21;19.40;69.30
8862;DHT22;4799;50.996;4.754;2023-05-20T10:25:52;19.40;68.70
8862;DHT22;4799;50.996;4.754;2023-05-20T10:28:39;19.40;69.90
8862;DHT22;4799;50.996;4.754;2023-05-20T10:31:16;19.40;68.70
8862;DHT22;4799;50.996;4.754;2023-05-20T10:33:44;19.50;68.50
8862;DHT22;4799;50.996;4.754;2023-05-20T10:36:29;19.50;68.90
8862;DHT22;4799;50.996;4.754;2023-05-20T10:38:58;19.50;70.40
8862;DHT22;4799;50.996;4.754;2023-05-20T10:41:25;19.50;69.00
8862;DHT22;4799;50.996;4.754;2023-05-20T10:44:02;19.50;68.10
8862;DHT22;4799;50.996;4.754;2023-05-20T10:46:29;19.60;69.50
8862;DHT22;4799;50.996;4.754;2023-05-20T10:48:55;19.60;68.50
8862;DHT22;4799;50.996;4.754;2023-05-20T10:51:22;19.70;70.50
8862;DHT22;4799;50.996;4.754;2023-05-20T10:53:52;19.80;71.50
8862;DHT22;4799;50.996;4.754;2023-05-20T10:56:21;19.80;70.00
8862;DHT22;4799;50.996;4.754;2023-05-20T10:58:47;19.90;69.20
8862;DHT22;4799;50.996;4.754;2023-05-20T11:01:14;19.90;69.60
8862;DHT22;4799;50.996;4.754;2023-05-20T11:03:42;20.00;70.60
8862;DHT22;4799;50.996;4.754;2023-05-20T11:06:15;20.10;70.30
8862;DHT22;4799;50.996;4.754;2023-05-20T11:08:42;20.20;70.60
8862;DHT22;4799;50.996;4.754;2023-05-20T11:11:09;20.30;70.30
8862;DHT22;4799;50.996;4.754;2023-05-20T11:13:36;20.40;71.50
8862;DHT22;4799;50.996;4.754;2023-05-20T11:16:05;20.40;69.80
8862;DHT22;4799;50.996;4.754;2023-05-20T11:18:31;20.40;68.50
8862;DHT22;4799;50.996;4.754;2023-05-20T11:21:01;20.40;68.10
8862;DHT22;4799;50.996;4.754;2023-05-20T11:23:28;20.50;68.00
8862;DHT22;4799;50.996;4.754;2023-05-20T11:25:55;20.50;68.40
8862;DHT22;4799;50.996;4.754;2023-05-20T11:28:22;20.60;68.60
8862;DHT22;4799;50.996;4.754;2023-05-20T11:30:49;20.60;69.10
8862;DHT22;4799;50.996;4.754;2023-05-20T11:33:16;20.60;68.20
8862;DHT22;4799;50.996;4.754;2023-05-20T11:35:47;20.60;68.70
8862;DHT22;4799;50.996;4.754;2023-05-20T11:38:14;20.50;68.30
8862;DHT22;4799;50.996;4.754;2023-05-20T11:40:44;20.50;69.00
8862;DHT22;4799;50.996;4.754;2023-05-20T11:43:12;20.50;71.70
8862;DHT22;4799;50.996;4.754;2023-05-20T11:45:43;20.50;71.10
8862;DHT22;4799;50.996;4.754;2023-05-20T11:48:09;20.70;73.00
8862;DHT22;4799;50.996;4.754;2023-05-20T11:50:42;20.90;72.00
8862;DHT22;4799;50.996;4.754;2023-05-20T11:53:10;21.20;69.90
8862;DHT22;4799;50.996;4.754;2023-05-20T11:55:56;21.40;69.80
8862;DHT22;4799;50.996;4.754;2023-05-20T11:58:24;21.50;68.80
8862;DHT22;4799;50.996;4.754;2023-05-20T12:00:50;21.40;66.90
8862;DHT22;4799;50.996;4.754;2023-05-20T12:03:16;21.50;67.70
8862;DHT22;4799;50.996;4.754;2023-05-20T12:05:42;21.80;68.80
8862;DHT22;4799;50.996;4.754;2023-05-20T12:08:08;21.80;67.50
8862;DHT22;4799;50.996;4.754;2023-05-20T12:10:34;21.70;65.30
8862;DHT22;4799;50.996;4.754;2023-05-20T12:13:01;21.70;65.30
8862;DHT22;4799;50.996;4.754;2023-05-20T12:15:28;21.80;65.20
8862;DHT22;4799;50.996;4.754;2023-05-20T12:17:54;21.80;66.10
8862;DHT22;4799;50.996;4.754;2023-05-20T12:20:23;21.80;64.30
8862;DHT22;4799;50.996;4.754;2023-05-20T12:22:49;21.80;65.80
8862;DHT22;4799;50.996;4.754;2023-05-20T12:25:17;21.80;64.20
8862;DHT22;4799;50.996;4.754;2023-05-20T12:27:44;21.70;63.60
8862;DHT22;4799;50.996;4.754;2023-05-20T12:30:21;21.80;64.40
8862;DHT22;4799;50.996;4.754;2023-05-20T12:32:48;21.90;65.90
8862;DHT22;4799;50.996;4.754;2023-05-20T12:35:16;21.90;66.50
8862;DHT22;4799;50.996;4.754;2023-05-20T12:37:42;21.90;66.20
8862;DHT22;4799;50.996;4.754;2023-05-20T12:40:09;21.70;62.60
8862;DHT22;4799;50.996;4.754;2023-05-20T12:42:40;21.70;63.40
8862;DHT22;4799;50.996;4.754;2023-05-20T12:45:07;21.70;64.50
8862;DHT22;4799;50.996;4.754;2023-05-20T12:47:33;21.70;64.00
8862;DHT22;4799;50.996;4.754;2023-05-20T12:50:00;21.80;63.70
8862;DHT22;4799;50.996;4.754;2023-05-20T12:52:27;21.80;62.60
8862;DHT22;4799;50.996;4.754;2023-05-20T12:54:53;21.90;64.00
8862;DHT22;4799;50.996;4.754;2023-05-20T12:57:20;22.00;63.40
8862;DHT22;4799;50.996;4.754;2023-05-20T12:59:46;22.00;63.50
8862;DHT22;4799;50.996;4.754;2023-05-20T13:02:12;22.20;62.70
8862;DHT22;4799;50.996;4.754;2023-05-20T13:04:38;22.20;62.90
8862;DHT22;4799;50.996;4.754;2023-05-20T13:07:04;22.40;62.60
8862;DHT22;4799;50.996;4.754;2023-05-20T13:09:30;22.50;61.40
8862;DHT22;4799;50.996;4.754;2023-05-20T13:11:57;22.60;62.00
8862;DHT22;4799;50.996;4.754;2023-05-20T13:14:22;22.60;61.30
8862;DHT22;4799;50.996;4.754;2023-05-20T13:16:50;22.60;62.60
8862;DHT22;4799;50.996;4.754;2023-05-20T13:19:22;22.50;62.00
8862;DHT22;4799;50.996;4.754;2023-05-20T13:21:49;22.50;61.70
8862;DHT22;4799;50.996;4.754;2023-05-20T13:24:16;22.60;63.10
8862;DHT22;4799;50.996;4.754;2023-05-20T13:26:42;22.90;63.30
8862;DHT22;4799;50.996;4.754;2023-05-20T13:29:10;23.00;62.90
8862;DHT22;4799;50.996;4.754;2023-05-20T13:31:37;23.00;60.80
8862;DHT22;4799;50.996;4.754;2023-05-20T13:34:03;23.00;61.60
8862;DHT22;4799;50.996;4.754;2023-05-20T13:36:28;23.00;60.00
8862;DHT22;4799;50.996;4.754;2023-05-20T13:38:54;23.00;59.60
8862;DHT22;4799;50.996;4.754;2023-05-20T13:41:20;23.10;59.70
8862;DHT22;4799;50.996;4.754;2023-05-20T13:43:46;23.20;59.70
8862;DHT22;4799;50.996;4.754;2023-05-20T13:46:11;23.30;58.70
8862;DHT22;4799;50.996;4.754;2023-05-20T13:48:37;23.30;58.60
8862;DHT22;4799;50.996;4.754;2023-05-20T13:51:03;23.30;59.40
8862;DHT22;4799;50.996;4.754;2023-05-20T13:53:28;23.50;58.90
8862;DHT22;4799;50.996;4.754;2023-05-20T13:55:54;23.60;59.10
8862;DHT22;4799;50.996;4.754;2023-05-20T13:58:20;23.70;58.50
8862;DHT22;4799;50.996;4.754;2023-05-20T14:00:46;23.80;58.80
8862;DHT22;4799;50.996;4.754;2023-05-20T14:03:12;23.80;58.30
8862;DHT22;4799;50.996;4.754;2023-05-20T14:05:38;23.90;58.30
8862;DHT22;4799;50.996;4.754;2023-05-20T14:08:05;24.00;58.20
8862;DHT22;4799;50.996;4.754;2023-05-20T14:10:30;24.10;57.70
8862;DHT22;4799;50.996;4.754;2023-05-20T14:12:57;24.20;57.50
8862;DHT22;4799;50.996;4.754;2023-05-20T14:15:23;24.10;57.30
8862;DHT22;4799;50.996;4.754;2023-05-20T14:17:49;24.10;56.30
8862;DHT22;4799;50.996;4.754;2023-05-20T14:20:15;24.10;56.90
8862;DHT22;4799;50.996;4.754;2023-05-20T14:22:41;24.10;57.40
8862;DHT22;4799;50.996;4.754;2023-05-20T14:25:07;24.00;57.70
8862;DHT22;4799;50.996;4.754;2023-05-20T14:27:33;24.00;57.30
8862;DHT22;4799;50.996;4.754;2023-05-20T14:29:59;23.90;56.90
8862;DHT22;4799;50.996;4.754;2023-05-20T14:32:26;23.80;57.50
8862;DHT22;4799;50.996;4.754;2023-05-20T14:34:52;23.70;57.00
8862;DHT22;4799;50.996;4.754;2023-05-20T14:37:18;23.80;57.10
8862;DHT22;4799;50.996;4.754;2023-05-20T14:39:44;24.10;57.70
8862;DHT22;4799;50.996;4.754;2023-05-20T14:42:10;24.40;57.70
8862;DHT22;4799;50.996;4.754;2023-05-20T14:44:36;24.50;56.60
8862;DHT22;4799;50.996;4.754;2023-05-20T14:47:02;24.70;56.20
8862;DHT22;4799;50.996;4.754;2023-05-20T14:49:28;24.60;55.80
8862;DHT22;4799;50.996;4.754;2023-05-20T14:51:54;24.50;55.90
8862;DHT22;4799;50.996;4.754;2023-05-20T14:54:20;24.40;55.40
8862;DHT22;4799;50.996;4.754;2023-05-20T14:56:50;24.40;56.40
8862;DHT22;4799;50.996;4.754;2023-05-20T14:59:18;24.50;56.70
8862;DHT22;4799;50.996;4.754;2023-05-20T15:01:44;24.50;56.70
8862;DHT22;4799;50.996;4.754;2023-05-20T15:04:10;24.60;56.60
8862;DHT22;4799;50.996;4.754;2023-05-20T15:06:36;24.60;57.10
8862;DHT22;4799;50.996;4.754;2023-05-20T15:09:03;24.60;56.40
8862;DHT22;4799;50.996;4.754;2023-05-20T15:11:29;24.40;56.40
8862;DHT22;4799;50.996;4.754;2023-05-20T15:13:55;24.30;57.10
8862;DHT22;4799;50.996;4.754;2023-05-20T15:16:22;24.40;57.90
8862;DHT22;4799;50.996;4.754;2023-05-20T15:18:52;24.30;57.90
8862;DHT22;4799;50.996;4.754;2023-05-20T15:21:17;24.30;58.20
8862;DHT22;4799;50.996;4.754;2023-05-20T15:23:43;24.30;57.90
8862;DHT22;4799;50.996;4.754;2023-05-20T15:26:09;24.10;57.70
8862;DHT22;4799;50.996;4.754;2023-05-20T15:28:38;24.00;57.80
8862;DHT22;4799;50.996;4.754;2023-05-20T15:31:04;23.80;57.90
8862;DHT22;4799;50.996;4.754;2023-05-20T15:33:30;23.80;58.60
8862;DHT22;4799;50.996;4.754;2023-05-20T15:35:56;23.90;59.40
8862;DHT22;4799;50.996;4.754;2023-05-20T15:38:22;24.00;59.50
8862;DHT22;4799;50.996;4.754;2023-05-20T15:40:47;23.90;58.90
8862;DHT22;4799;50.996;4.754;2023-05-20T15:43:17;23.90;59.40
8862;DHT22;4799;50.996;4.754;2023-05-20T15:45:44;23.70;59.50
8862;DHT22;4799;50.996;4.754;2023-05-20T15:48:10;23.70;60.00
8862;DHT22;4799;50.996;4.754;2023-05-20T15:50:37;23.50;59.70
8862;DHT22;4799;50.996;4.754;2023-05-20T15:53:07;23.50;60.00
8862;DHT22;4799;50.996;4.754;2023-05-20T15:55:33;23.50;60.00
8862;DHT22;4799;50.996;4.754;2023-05-20T15:57:59;23.60;60.60
8862;DHT22;4799;50.996;4.754;2023-05-20T16:00:25;23.60;60.50
8862;DHT22;4799;50.996;4.754;2023-05-20T16:02:51;23.60;60.00
8862;DHT22;4799;50.996;4.754;2023-05-20T16:05:19;23.70;60.90